createdAt,value
2019-03-03T00:00:36.051Z,84.90
2019-03-03T00:01:36.040Z,84.59
2019-03-03T00:02:36.030Z,84.69
2019-03-03T00:03:36.027Z,85.21
2019-03-03T00:04:36.009Z,85.21
2019-03-03T00:05:35.997Z,84.80
2019-03-03T00:06:35.986Z,84.90
2019-03-03T00:07:35.975Z,84.65
2019-03-03T00:08:35.986Z,85.06
2019-03-03T00:09:35.954Z,85.17
2019-03-03T00:10:35.957Z,85.06
2019-03-03T00:11:35.931Z,85.00
2019-03-03T00:12:35.921Z,85.38
2019-03-03T00:13:35.921Z,85.17
2019-03-03T00:14:35.900Z,85.48
2019-03-03T00:15:35.889Z,85.06
2019-03-03T00:16:35.882Z,85.38
2019-03-03T00:17:35.868Z,85.17
2019-03-03T00:18:35.865Z,85.17
2019-03-03T00:19:35.845Z,85.03
2019-03-03T00:20:35.834Z,84.72
2019-03-03T00:21:35.824Z,84.61
2019-03-03T00:22:35.813Z,84.41
2019-03-03T00:23:35.816Z,84.92
2019-03-03T00:24:35.792Z,84.82
2019-03-03T00:25:35.784Z,84.82
2019-03-03T00:26:35.770Z,85.03
2019-03-03T00:27:35.759Z,84.51
2019-03-03T00:28:35.759Z,84.72
2019-03-03T00:29:35.737Z,84.92
2019-03-03T00:30:35.725Z,84.30
2019-03-03T00:31:35.715Z,85.03
2019-03-03T00:32:35.704Z,84.51
2019-03-03T00:33:35.704Z,84.82
2019-03-03T00:34:35.683Z,84.61
2019-03-03T00:35:35.671Z,84.68
2019-03-03T00:36:35.665Z,84.58
2019-03-03T00:37:35.651Z,84.27
2019-03-03T00:38:35.648Z,84.58
2019-03-03T00:39:35.628Z,84.99
2019-03-03T00:40:35.618Z,84.58
2019-03-03T00:41:35.608Z,84.58
2019-03-03T00:42:35.595Z,84.88
2019-03-03T00:43:35.610Z,84.99
2019-03-03T00:44:35.573Z,84.88
2019-03-03T00:45:35.562Z,84.68
2019-03-03T00:46:35.555Z,84.88
2019-03-03T00:47:35.542Z,84.47
2019-03-03T00:48:35.531Z,84.37
2019-03-03T00:49:35.528Z,84.58
2019-03-03T00:50:35.508Z,84.88
2019-03-03T00:51:35.497Z,84.43
2019-03-03T00:52:35.486Z,84.68
2019-03-03T00:53:35.476Z,84.99
2019-03-03T00:54:35.480Z,84.37
2019-03-03T00:55:35.454Z,84.47
2019-03-03T00:56:35.443Z,84.58
2019-03-03T00:57:35.431Z,84.95
2019-03-03T00:58:35.421Z,84.74
2019-03-03T00:59:35.418Z,84.43
2019-03-03T01:00:35.399Z,84.95
2019-03-03T01:01:35.387Z,84.64
2019-03-03T01:02:35.377Z,84.95
2019-03-03T01:03:35.366Z,84.47
2019-03-03T01:04:35.364Z,85.09
2019-03-03T01:05:35.344Z,84.95
2019-03-03T01:06:35.340Z,84.53
2019-03-03T01:07:35.322Z,84.33
2019-03-03T01:08:35.311Z,84.43
2019-03-03T01:09:35.312Z,84.84
2019-03-03T01:10:35.291Z,84.53
2019-03-03T01:11:35.279Z,84.74
2019-03-03T01:12:35.268Z,84.64
2019-03-03T01:13:35.256Z,85.16
2019-03-03T01:14:35.255Z,84.84
2019-03-03T01:15:35.235Z,84.95
2019-03-03T01:16:35.225Z,85.16
2019-03-03T01:17:35.217Z,84.64
2019-03-03T01:18:35.202Z,84.95
2019-03-03T01:19:35.242Z,84.84
2019-03-03T01:20:35.180Z,84.95
2019-03-03T01:21:35.170Z,85.11
2019-03-03T01:22:35.160Z,84.74
2019-03-03T01:23:35.152Z,84.81
2019-03-03T01:24:35.138Z,84.81
2019-03-03T01:25:35.138Z,84.60
2019-03-03T01:26:35.147Z,85.32
2019-03-03T01:27:35.112Z,85.42
2019-03-03T01:28:35.101Z,85.42
2019-03-03T01:29:35.087Z,85.74
2019-03-03T01:30:35.082Z,85.74
2019-03-03T01:31:35.061Z,86.57
2019-03-03T01:32:35.053Z,87.29
2019-03-03T01:33:35.045Z,87.49
2019-03-03T01:34:35.028Z,88.43
2019-03-03T01:35:35.026Z,88.64
2019-03-03T01:36:35.006Z,89.04
2019-03-03T01:37:34.996Z,89.46
2019-03-03T01:38:34.985Z,89.98
2019-03-03T01:39:34.975Z,89.67
2019-03-03T01:40:34.978Z,90.08
2019-03-03T01:41:34.962Z,90.29
2019-03-03T01:42:34.942Z,90.19
2019-03-03T01:43:34.931Z,90.80
2019-03-03T01:44:34.920Z,90.29
2019-03-03T01:45:34.922Z,90.70
2019-03-03T01:46:34.901Z,90.50
2019-03-03T01:47:34.888Z,90.60
2019-03-03T01:48:34.877Z,91.11
2019-03-03T01:49:34.919Z,91.01
2019-03-03T01:50:34.863Z,91.32
2019-03-03T01:51:34.849Z,91.53
2019-03-03T01:52:34.833Z,91.63
2019-03-03T01:53:34.873Z,91.42
2019-03-03T01:54:34.812Z,91.84
2019-03-03T01:55:34.812Z,91.84
2019-03-03T01:56:34.793Z,91.84
2019-03-03T01:57:34.780Z,92.25
2019-03-03T01:58:34.802Z,91.63
2019-03-03T01:59:34.757Z,92.25
2019-03-03T02:00:34.760Z,92.36
2019-03-03T02:01:34.740Z,92.36
2019-03-03T02:02:34.724Z,92.15
2019-03-03T02:03:34.715Z,92.25
2019-03-03T02:04:34.707Z,92.25
2019-03-03T02:05:34.694Z,91.94
2019-03-03T02:06:34.691Z,92.46
2019-03-03T02:07:34.669Z,92.21
2019-03-03T02:08:34.659Z,92.11
2019-03-03T02:09:34.650Z,91.59
2019-03-03T02:10:34.637Z,91.80
2019-03-03T02:11:34.640Z,92.00
2019-03-03T02:12:34.614Z,92.05
2019-03-03T02:13:34.608Z,92.05
2019-03-03T02:14:34.597Z,92.15
2019-03-03T02:15:34.587Z,92.25
2019-03-03T02:16:34.580Z,91.42
2019-03-03T02:17:34.562Z,91.17
2019-03-03T02:18:34.554Z,91.38
2019-03-03T02:19:34.541Z,92.05
2019-03-03T02:20:34.528Z,91.80
2019-03-03T02:21:34.526Z,92.11
2019-03-03T02:22:34.506Z,92.00
2019-03-03T02:23:34.498Z,92.00
2019-03-03T02:24:34.490Z,92.00
2019-03-03T02:25:34.473Z,92.52
2019-03-03T02:26:34.475Z,91.69
2019-03-03T02:27:34.451Z,92.21
2019-03-03T02:28:34.440Z,92.21
2019-03-03T02:29:34.431Z,92.00
2019-03-03T02:30:34.420Z,92.11
2019-03-03T02:31:34.423Z,92.21
2019-03-03T02:32:34.397Z,92.00
2019-03-03T02:33:34.402Z,92.11
2019-03-03T02:34:34.376Z,91.90
2019-03-03T02:35:34.366Z,91.69
2019-03-03T02:36:34.367Z,91.90
2019-03-03T02:37:34.345Z,92.11
2019-03-03T02:38:34.341Z,92.11
2019-03-03T02:39:34.321Z,92.21
2019-03-03T02:40:34.309Z,92.00
2019-03-03T02:41:34.308Z,91.90
2019-03-03T02:42:34.306Z,92.11
2019-03-03T02:43:34.283Z,92.21
2019-03-03T02:44:34.269Z,92.32
2019-03-03T02:45:34.257Z,91.90
2019-03-03T02:46:34.253Z,92.83
2019-03-03T02:47:34.239Z,92.63
2019-03-03T02:48:34.223Z,92.93
2019-03-03T02:49:34.216Z,92.93
2019-03-03T02:50:34.204Z,93.55
2019-03-03T02:51:34.199Z,93.35
2019-03-03T02:52:34.180Z,93.35
2019-03-03T02:53:34.171Z,93.51
2019-03-03T02:54:34.159Z,93.87
2019-03-03T02:55:34.147Z,93.76
2019-03-03T02:56:34.145Z,93.72
2019-03-03T02:57:34.126Z,93.41
2019-03-03T02:58:34.123Z,93.87
2019-03-03T02:59:34.107Z,93.82
2019-03-03T03:00:34.096Z,94.23
2019-03-03T03:01:34.092Z,94.44
2019-03-03T03:02:34.104Z,95.10
2019-03-03T03:03:34.063Z,94.75
2019-03-03T03:04:34.050Z,94.59
2019-03-03T03:05:34.041Z,94.48
2019-03-03T03:06:34.054Z,94.48
2019-03-03T03:07:34.022Z,95.00
2019-03-03T03:08:34.008Z,95.21
2019-03-03T03:09:33.997Z,95.21
2019-03-03T03:10:33.987Z,95.37
2019-03-03T03:11:33.983Z,95.94
2019-03-03T03:12:33.974Z,95.83
2019-03-03T03:13:33.960Z,95.73
2019-03-03T03:14:33.957Z,95.62
2019-03-03T03:15:33.933Z,95.52
2019-03-03T03:16:33.925Z,95.57
2019-03-03T03:17:33.919Z,95.68
2019-03-03T03:18:33.900Z,95.83
2019-03-03T03:19:33.893Z,95.57
2019-03-03T03:20:33.880Z,95.68
2019-03-03T03:21:33.869Z,95.57
2019-03-03T03:22:33.866Z,95.83
2019-03-03T03:23:33.845Z,95.57
2019-03-03T03:24:33.835Z,95.37
2019-03-03T03:25:33.832Z,95.37
2019-03-03T03:26:33.815Z,95.57
2019-03-03T03:27:33.812Z,95.68
2019-03-03T03:28:33.793Z,95.48
2019-03-03T03:29:33.783Z,95.68
2019-03-03T03:30:33.772Z,95.57
2019-03-03T03:31:33.762Z,95.57
2019-03-03T03:32:33.771Z,95.78
2019-03-03T03:33:33.741Z,96.03
2019-03-03T03:34:33.729Z,95.62
2019-03-03T03:35:33.725Z,96.14
2019-03-03T03:36:36.578Z,96.14
2019-03-03T03:37:33.707Z,95.83
2019-03-03T03:38:33.686Z,95.83
2019-03-03T03:39:33.676Z,95.83
2019-03-03T03:40:33.664Z,95.42
2019-03-03T03:41:33.661Z,95.62
2019-03-03T03:42:33.654Z,95.52
2019-03-03T03:43:33.635Z,95.42
2019-03-03T03:44:33.622Z,96.14
2019-03-03T03:45:33.612Z,96.34
2019-03-03T03:46:33.604Z,95.94
2019-03-03T03:47:33.597Z,96.14
2019-03-03T03:48:33.579Z,96.03
2019-03-03T03:49:33.568Z,96.03
2019-03-03T03:50:33.558Z,96.03
2019-03-03T03:51:33.552Z,96.14
2019-03-03T03:52:33.545Z,96.03
2019-03-03T03:53:33.530Z,96.03
2019-03-03T03:54:33.514Z,96.14
2019-03-03T03:55:33.508Z,96.03
2019-03-03T03:56:33.495Z,96.03
2019-03-03T03:57:33.519Z,96.03
2019-03-03T03:58:33.480Z,95.83
2019-03-03T03:59:33.460Z,95.83
2019-03-03T04:00:33.450Z,95.99
2019-03-03T04:01:33.437Z,95.94
2019-03-03T04:02:33.435Z,95.94
2019-03-03T04:03:33.429Z,96.14
2019-03-03T04:04:33.409Z,96.14
2019-03-03T04:05:33.394Z,96.14
2019-03-03T04:06:33.390Z,96.24
2019-03-03T04:07:33.374Z,96.14
2019-03-03T04:08:33.369Z,96.14
2019-03-03T04:09:33.355Z,95.62
2019-03-03T04:10:33.347Z,96.03
2019-03-03T04:11:33.330Z,95.73
2019-03-03T04:12:33.317Z,95.62
2019-03-03T04:13:33.326Z,95.42
2019-03-03T04:14:33.301Z,95.73
2019-03-03T04:15:33.285Z,95.83
2019-03-03T04:16:33.275Z,95.52
2019-03-03T04:17:33.263Z,95.83
2019-03-03T04:18:33.270Z,95.94
2019-03-03T04:19:33.253Z,95.62
2019-03-03T04:20:33.231Z,95.73
2019-03-03T04:21:33.221Z,95.73
2019-03-03T04:22:33.211Z,96.24
2019-03-03T04:23:33.209Z,96.03
2019-03-03T04:24:33.188Z,96.03
2019-03-03T04:25:33.178Z,96.14
2019-03-03T04:26:33.168Z,96.14
2019-03-03T04:27:33.159Z,96.14
2019-03-03T04:28:33.155Z,96.34
2019-03-03T04:29:33.136Z,96.24
2019-03-03T04:30:33.124Z,95.73
2019-03-03T04:31:33.114Z,95.73
2019-03-03T04:32:33.101Z,95.73
2019-03-03T04:33:33.115Z,95.73
2019-03-03T04:34:33.084Z,95.52
2019-03-03T04:35:33.070Z,95.73
2019-03-03T04:36:33.061Z,96.34
2019-03-03T04:37:33.047Z,96.14
2019-03-03T04:38:33.038Z,95.42
2019-03-03T04:39:33.034Z,96.34
2019-03-03T04:40:33.015Z,96.24
2019-03-03T04:41:33.004Z,96.34
2019-03-03T04:42:32.992Z,96.34
2019-03-03T04:43:32.987Z,96.24
2019-03-03T04:44:32.980Z,96.76
2019-03-03T04:45:32.959Z,96.55
2019-03-03T04:46:32.948Z,96.24
2019-03-03T04:47:32.939Z,96.30
2019-03-03T04:48:32.928Z,96.30
2019-03-03T04:49:32.925Z,96.20
2019-03-03T04:50:32.905Z,96.26
2019-03-03T04:51:32.894Z,96.26
2019-03-03T04:52:32.884Z,96.56
2019-03-03T04:53:32.874Z,96.88
2019-03-03T04:54:32.874Z,95.95
2019-03-03T04:55:32.851Z,96.15
2019-03-03T04:56:32.843Z,95.64
2019-03-03T04:57:32.830Z,95.74
2019-03-03T04:58:32.818Z,94.97
2019-03-03T04:59:32.816Z,95.18
2019-03-03T05:00:32.799Z,94.46
2019-03-03T05:01:32.786Z,94.46
2019-03-03T05:02:32.781Z,94.46
2019-03-03T05:03:32.764Z,94.25
2019-03-03T05:04:32.762Z,94.25
2019-03-03T05:05:32.743Z,94.87
2019-03-03T05:06:32.733Z,94.87
2019-03-03T05:07:32.724Z,94.97
2019-03-03T05:08:32.710Z,94.87
2019-03-03T05:09:32.731Z,94.77
2019-03-03T05:10:32.689Z,94.67
2019-03-03T05:11:32.681Z,94.46
2019-03-03T05:12:32.673Z,94.46
2019-03-03T05:13:32.657Z,94.42
2019-03-03T05:14:32.647Z,94.77
2019-03-03T05:15:32.648Z,94.77
2019-03-03T05:16:32.626Z,94.97
2019-03-03T05:17:32.615Z,94.72
2019-03-03T05:18:32.604Z,94.62
2019-03-03T05:19:32.592Z,94.72
2019-03-03T05:20:32.595Z,94.82
2019-03-03T05:21:32.572Z,94.72
2019-03-03T05:22:32.561Z,94.72
2019-03-03T05:23:32.549Z,94.72
2019-03-03T05:24:34.592Z,94.72
2019-03-03T05:25:32.541Z,93.90
2019-03-03T05:26:32.518Z,93.90
2019-03-03T05:27:32.507Z,93.90
2019-03-03T05:28:32.497Z,93.90
2019-03-03T05:29:32.487Z,93.90
2019-03-03T05:30:32.494Z,94.10
2019-03-03T05:31:32.476Z,94.21
2019-03-03T05:32:32.454Z,93.79
2019-03-03T05:33:32.444Z,94.31
2019-03-03T05:34:32.435Z,93.38
2019-03-03T05:35:32.430Z,93.79
2019-03-03T05:36:32.411Z,93.49
2019-03-03T05:37:32.404Z,93.79
2019-03-03T05:38:32.392Z,94.17
2019-03-03T05:39:32.380Z,94.10
2019-03-03T05:40:32.378Z,94.42
2019-03-03T05:41:32.358Z,93.75
2019-03-03T05:42:32.350Z,94.06
2019-03-03T05:43:32.339Z,93.24
2019-03-03T05:44:32.325Z,93.28
2019-03-03T05:45:32.324Z,94.10
2019-03-03T05:46:32.304Z,93.96
2019-03-03T05:47:32.298Z,94.00
2019-03-03T05:48:32.283Z,93.75
2019-03-03T05:49:32.274Z,94.06
2019-03-03T05:50:32.270Z,94.10
2019-03-03T05:51:32.250Z,94.52
2019-03-03T05:52:32.240Z,93.65
2019-03-03T05:53:32.229Z,93.96
2019-03-03T05:54:32.218Z,94.10
2019-03-03T05:55:32.220Z,93.75
2019-03-03T05:56:32.198Z,93.65
2019-03-03T05:57:32.186Z,93.34
2019-03-03T05:58:32.175Z,93.65
2019-03-03T05:59:32.165Z,93.65
2019-03-03T06:00:32.187Z,93.44
2019-03-03T06:01:32.143Z,93.13
2019-03-03T06:02:32.132Z,93.03
2019-03-03T06:03:32.122Z,93.13
2019-03-03T06:04:32.111Z,93.13
2019-03-03T06:05:32.099Z,93.13
2019-03-03T06:06:32.098Z,92.82
2019-03-03T06:07:32.079Z,93.09
2019-03-03T06:08:32.069Z,92.51
2019-03-03T06:09:32.058Z,92.16
2019-03-03T06:10:32.047Z,92.61
2019-03-03T06:11:32.044Z,92.57
2019-03-03T06:12:32.040Z,92.37
2019-03-03T06:13:32.016Z,91.64
2019-03-03T06:14:32.003Z,91.64
2019-03-03T06:15:31.993Z,91.64
2019-03-03T06:16:31.990Z,91.44
2019-03-03T06:17:31.975Z,91.64
2019-03-03T06:18:31.960Z,91.54
2019-03-03T06:19:31.993Z,91.64
2019-03-03T06:20:31.938Z,92.06
2019-03-03T06:21:31.937Z,91.96
2019-03-03T06:22:31.918Z,91.44
2019-03-03T06:23:31.905Z,90.99
2019-03-03T06:24:31.895Z,91.81
2019-03-03T06:25:31.884Z,90.99
2019-03-03T06:26:31.881Z,90.47
2019-03-03T06:27:31.863Z,90.78
2019-03-03T06:28:31.852Z,91.71
2019-03-03T06:29:31.847Z,91.30
2019-03-03T06:30:31.831Z,91.30
2019-03-03T06:31:31.828Z,91.19
2019-03-03T06:32:31.808Z,91.50
2019-03-03T06:33:31.797Z,90.99
2019-03-03T06:34:31.789Z,90.47
2019-03-03T06:35:31.778Z,90.57
2019-03-03T06:36:31.774Z,90.99
2019-03-03T06:37:31.755Z,90.64
2019-03-03T06:38:31.747Z,90.73
2019-03-03T06:39:31.735Z,90.88
2019-03-03T06:40:31.745Z,90.53
2019-03-03T06:41:31.723Z,90.43
2019-03-03T06:42:31.698Z,90.12
2019-03-03T06:43:31.695Z,90.12
2019-03-03T06:44:31.679Z,90.12
2019-03-03T06:45:31.667Z,90.18
2019-03-03T06:46:31.664Z,89.87
2019-03-03T06:47:31.646Z,90.08
2019-03-03T06:48:31.635Z,89.87
2019-03-03T06:49:31.625Z,90.08
2019-03-03T06:50:31.614Z,89.25
2019-03-03T06:51:31.611Z,90.08
2019-03-03T06:52:31.592Z,89.87
2019-03-03T06:53:31.595Z,90.59
2019-03-03T06:54:31.570Z,89.46
2019-03-03T06:55:31.558Z,89.77
2019-03-03T06:56:31.556Z,90.28
2019-03-03T06:57:31.540Z,89.97
2019-03-03T06:58:31.533Z,90.08
2019-03-03T06:59:31.515Z,89.56
2019-03-03T07:00:31.519Z,89.83
2019-03-03T07:01:31.502Z,89.42
2019-03-03T07:02:31.482Z,90.03
2019-03-03T07:03:31.473Z,89.94
2019-03-03T07:04:31.465Z,90.24
2019-03-03T07:05:31.450Z,89.42
2019-03-03T07:06:31.447Z,89.01
2019-03-03T07:07:31.428Z,89.01
2019-03-03T07:08:31.422Z,88.49
2019-03-03T07:09:31.406Z,89.22
2019-03-03T07:10:31.395Z,89.38
2019-03-03T07:11:31.392Z,88.49
2019-03-03T07:12:31.374Z,88.04
2019-03-03T07:13:31.362Z,88.96
2019-03-03T07:14:31.351Z,88.45
2019-03-03T07:15:31.341Z,88.45
2019-03-03T07:16:31.338Z,88.56
2019-03-03T07:17:31.318Z,87.73
2019-03-03T07:18:31.310Z,88.56
2019-03-03T07:19:31.296Z,86.60
2019-03-03T07:20:31.286Z,86.66
2019-03-03T07:21:31.318Z,87.28
2019-03-03T07:22:31.266Z,87.28
2019-03-03T07:23:31.254Z,86.87
2019-03-03T07:24:31.243Z,88.00
2019-03-03T07:25:31.232Z,86.97
2019-03-03T07:26:31.225Z,87.90
2019-03-03T07:27:31.219Z,87.07
2019-03-03T07:28:31.198Z,86.66
2019-03-03T07:29:31.187Z,86.97
2019-03-03T07:30:31.178Z,87.07
2019-03-03T07:31:31.167Z,86.77
2019-03-03T07:32:31.164Z,85.84
2019-03-03T07:33:31.146Z,86.15
2019-03-03T07:34:31.133Z,86.52
2019-03-03T07:35:31.122Z,86.93
2019-03-03T07:36:31.112Z,85.39
2019-03-03T07:37:31.109Z,85.28
2019-03-03T07:38:31.089Z,85.70
2019-03-03T07:39:31.079Z,84.88
2019-03-03T07:40:31.068Z,86.21
2019-03-03T07:41:31.057Z,85.55
2019-03-03T07:42:31.057Z,84.98
2019-03-03T07:43:31.034Z,83.95
2019-03-03T07:44:31.026Z,84.42
2019-03-03T07:45:31.012Z,84.63
2019-03-03T07:46:31.003Z,85.55
2019-03-03T07:47:30.999Z,84.12
2019-03-03T07:48:30.979Z,85.04
2019-03-03T07:49:30.970Z,85.14
2019-03-03T07:50:30.970Z,84.12
2019-03-03T07:51:30.950Z,84.18
2019-03-03T07:52:32.904Z,84.22
2019-03-03T07:53:30.926Z,83.98
2019-03-03T07:54:30.918Z,83.15
2019-03-03T07:55:30.905Z,83.77
2019-03-03T07:56:30.894Z,84.28
2019-03-03T07:57:30.890Z,82.75
2019-03-03T07:58:30.870Z,81.82
2019-03-03T07:59:30.859Z,82.81
2019-03-03T08:00:30.852Z,82.43
2019-03-03T08:01:30.839Z,81.78
2019-03-03T08:02:30.855Z,83.01
2019-03-03T08:03:30.817Z,83.32
2019-03-03T08:04:30.806Z,82.50
2019-03-03T08:05:30.796Z,81.68
2019-03-03T08:06:30.785Z,80.65
2019-03-03T08:07:30.786Z,81.85
2019-03-03T08:08:30.763Z,81.54
2019-03-03T08:09:30.751Z,81.74
2019-03-03T08:10:30.742Z,81.23
2019-03-03T08:11:30.731Z,82.36
2019-03-03T08:12:30.727Z,80.21
2019-03-03T08:13:30.711Z,80.82
2019-03-03T08:14:30.698Z,80.62
2019-03-03T08:15:30.686Z,80.21
2019-03-03T08:16:30.676Z,80.10
2019-03-03T08:17:30.700Z,78.97
2019-03-03T08:18:30.657Z,79.90
2019-03-03T08:19:30.643Z,79.49
2019-03-03T08:20:30.633Z,79.66
2019-03-03T08:21:30.622Z,80.07
2019-03-03T08:22:30.621Z,78.74
2019-03-03T08:23:30.651Z,79.86
2019-03-03T08:24:30.589Z,79.86
2019-03-03T08:25:30.578Z,80.13
2019-03-03T08:26:30.570Z,79.00
2019-03-03T08:27:30.565Z,79.72
2019-03-03T08:28:30.547Z,79.52
2019-03-03T08:29:30.538Z,77.47
2019-03-03T08:30:31.102Z,78.08
2019-03-03T08:31:30.513Z,77.06
2019-03-03T08:32:30.510Z,77.47
2019-03-03T08:33:30.491Z,78.15
2019-03-03T08:34:30.483Z,78.86
2019-03-03T08:35:30.513Z,78.25
2019-03-03T08:36:30.460Z,78.05
2019-03-03T08:37:30.456Z,77.33
2019-03-03T08:38:30.437Z,77.29
2019-03-03T08:39:30.426Z,78.21
2019-03-03T08:40:30.421Z,77.09
2019-03-03T08:41:30.406Z,77.09
2019-03-03T08:42:30.428Z,75.35
2019-03-03T08:43:30.383Z,76.68
2019-03-03T08:44:30.372Z,75.24
2019-03-03T08:45:30.365Z,75.38
2019-03-03T08:46:30.352Z,76.81
2019-03-03T08:47:30.341Z,76.40
2019-03-03T08:48:30.339Z,74.66
2019-03-03T08:49:30.319Z,75.89
2019-03-03T08:50:30.307Z,76.40
2019-03-03T08:51:30.297Z,76.20
2019-03-03T08:52:30.287Z,75.89
2019-03-03T08:53:30.286Z,76.75
2019-03-03T08:54:30.267Z,76.34
2019-03-03T08:55:30.256Z,77.47
2019-03-03T08:56:30.243Z,76.54
2019-03-03T08:57:30.234Z,77.06
2019-03-03T08:58:30.232Z,77.98
2019-03-03T08:59:30.214Z,78.28
2019-03-03T09:00:30.208Z,76.24
2019-03-03T09:01:30.197Z,76.54
2019-03-03T09:02:30.180Z,77.23
2019-03-03T09:03:30.204Z,77.33
2019-03-03T09:04:30.157Z,78.05
2019-03-03T09:05:30.149Z,75.18
2019-03-03T09:06:30.136Z,77.53
2019-03-03T09:07:30.140Z,77.43
2019-03-03T09:08:30.114Z,78.05
2019-03-03T09:09:30.130Z,78.45
2019-03-03T09:10:30.098Z,77.84
2019-03-03T09:11:30.086Z,77.53
2019-03-03T09:12:30.071Z,78.49
2019-03-03T09:13:30.066Z,78.70
2019-03-03T09:14:30.063Z,79.93
2019-03-03T09:15:30.040Z,79.79
2019-03-03T09:16:30.032Z,78.80
2019-03-03T09:17:30.024Z,79.31
2019-03-03T09:18:30.016Z,78.05
2019-03-03T09:19:30.007Z,78.05
2019-03-03T09:20:29.986Z,78.66
2019-03-03T09:21:29.979Z,77.23
2019-03-03T09:22:29.965Z,76.72
2019-03-03T09:23:29.954Z,77.33
2019-03-03T09:24:29.953Z,76.61
2019-03-03T09:25:29.933Z,76.61
2019-03-03T09:26:29.923Z,76.88
2019-03-03T09:27:29.912Z,78.31
2019-03-03T09:28:29.902Z,76.47
2019-03-03T09:29:29.906Z,77.53
2019-03-03T09:30:29.881Z,76.61
2019-03-03T09:31:29.893Z,76.61
2019-03-03T09:32:29.859Z,76.40
2019-03-03T09:33:29.847Z,75.99
2019-03-03T09:34:29.838Z,75.79
2019-03-03T09:35:29.842Z,76.10
2019-03-03T09:36:29.815Z,76.57
2019-03-03T09:37:29.805Z,75.79
2019-03-03T09:38:29.794Z,76.72
2019-03-03T09:39:29.785Z,76.78
2019-03-03T09:40:29.780Z,75.35
2019-03-03T09:41:29.762Z,75.14
2019-03-03T09:42:29.751Z,76.17
2019-03-03T09:43:29.740Z,75.86
2019-03-03T09:44:29.730Z,76.06
2019-03-03T09:45:29.729Z,77.09
2019-03-03T09:46:29.713Z,74.63
2019-03-03T09:47:29.699Z,74.08
2019-03-03T09:48:29.687Z,75.42
2019-03-03T09:49:29.677Z,75.14
2019-03-03T09:50:29.677Z,75.31
2019-03-03T09:51:29.658Z,75.31
2019-03-03T09:52:29.649Z,74.80
2019-03-03T09:53:29.636Z,75.31
2019-03-03T09:54:29.623Z,74.02
2019-03-03T09:55:29.622Z,74.49
2019-03-03T09:56:29.605Z,75.42
2019-03-03T09:57:29.590Z,74.11
2019-03-03T09:58:29.580Z,74.69
2019-03-03T09:59:29.569Z,75.31
2019-03-03T10:00:29.568Z,74.19
2019-03-03T10:01:29.551Z,75.21
2019-03-03T10:02:29.538Z,75.93
2019-03-03T10:03:29.525Z,76.43
2019-03-03T10:04:29.514Z,76.13
2019-03-03T10:05:29.513Z,75.52
2019-03-03T10:06:29.493Z,76.13
2019-03-03T10:07:29.482Z,75.21
2019-03-03T10:08:29.474Z,75.72
2019-03-03T10:09:29.461Z,75.31
2019-03-03T10:10:29.458Z,75.21
2019-03-03T10:11:29.440Z,75.52
2019-03-03T10:12:29.428Z,74.49
2019-03-03T10:13:29.418Z,73.36
2019-03-03T10:14:29.407Z,73.85
2019-03-03T10:15:29.405Z,73.74
2019-03-03T10:16:29.386Z,74.35
2019-03-03T10:17:29.375Z,73.54
2019-03-03T10:18:29.363Z,73.64
2019-03-03T10:19:29.353Z,74.66
2019-03-03T10:20:29.350Z,73.74
2019-03-03T10:21:29.904Z,73.44
2019-03-03T10:22:29.343Z,73.33
2019-03-03T10:23:29.310Z,73.54
2019-03-03T10:24:29.300Z,74.87
2019-03-03T10:25:29.306Z,75.59
2019-03-03T10:26:29.279Z,77.15
2019-03-03T10:27:29.301Z,76.54
2019-03-03T10:28:29.261Z,77.87
2019-03-03T10:29:29.246Z,79.44
2019-03-03T10:30:29.244Z,80.88
2019-03-03T10:31:29.226Z,80.05
2019-03-03T10:32:29.214Z,78.72
2019-03-03T10:33:29.204Z,77.19
2019-03-03T10:34:29.199Z,78.42
2019-03-03T10:35:29.191Z,76.88
2019-03-03T10:36:29.171Z,76.68
2019-03-03T10:37:29.161Z,77.09
2019-03-03T10:38:35.879Z,77.50
2019-03-03T10:39:30.140Z,78.49
2019-03-03T10:40:29.136Z,78.93
2019-03-03T10:41:29.117Z,80.02
2019-03-03T10:42:29.105Z,79.91
2019-03-03T10:43:29.096Z,83.91
2019-03-03T10:44:29.086Z,84.83
2019-03-03T10:45:29.083Z,84.46
2019-03-03T10:46:29.064Z,84.87
2019-03-03T10:47:29.053Z,84.15
2019-03-03T10:48:29.050Z,84.09
2019-03-03T10:49:29.033Z,84.19
2019-03-03T10:50:29.032Z,82.96
2019-03-03T10:51:29.011Z,82.86
2019-03-03T10:52:28.998Z,83.17
2019-03-03T10:53:28.989Z,83.98
2019-03-03T10:54:28.982Z,83.78
2019-03-03T10:55:28.976Z,84.19
2019-03-03T10:56:28.956Z,84.15
2019-03-03T10:57:30.384Z,85.07
2019-03-03T10:58:28.934Z,85.79
2019-03-03T10:59:28.925Z,82.45
2019-03-03T11:00:28.922Z,82.14
2019-03-03T11:01:28.902Z,81.32
2019-03-03T11:02:28.891Z,83.98
2019-03-03T11:03:28.883Z,81.59
2019-03-03T11:04:28.870Z,81.84
2019-03-03T11:05:28.884Z,82.21
2019-03-03T11:06:28.848Z,83.44
2019-03-03T11:07:28.838Z,81.70
2019-03-03T11:08:28.827Z,84.05
2019-03-03T11:09:28.815Z,82.62
2019-03-03T11:10:28.805Z,83.54
2019-03-03T11:11:28.804Z,83.44
2019-03-03T11:12:28.783Z,83.70
2019-03-03T11:13:28.778Z,81.96
2019-03-03T11:14:28.761Z,82.48
2019-03-03T11:15:28.757Z,81.96
2019-03-03T11:16:28.747Z,84.31
2019-03-03T11:17:28.731Z,81.04
2019-03-03T11:18:28.720Z,81.45
2019-03-03T11:19:28.707Z,82.17
2019-03-03T11:20:28.696Z,84.22
2019-03-03T11:21:28.694Z,80.33
2019-03-03T11:22:28.674Z,81.35
2019-03-03T11:23:28.666Z,81.65
2019-03-03T11:24:28.652Z,80.12
2019-03-03T11:25:28.640Z,79.82
2019-03-03T11:26:28.638Z,80.53
2019-03-03T11:27:28.620Z,83.05
2019-03-03T11:28:28.610Z,81.96
2019-03-03T11:29:28.597Z,79.98
2019-03-03T11:30:28.587Z,79.82
2019-03-03T11:31:28.586Z,78.17
2019-03-03T11:32:28.563Z,79.78
2019-03-03T11:33:28.555Z,79.98
2019-03-03T11:34:29.810Z,78.79
2019-03-03T11:35:28.531Z,79.20
2019-03-03T11:36:28.527Z,80.19
2019-03-03T11:37:28.508Z,78.96
2019-03-03T11:38:28.497Z,78.86
2019-03-03T11:39:28.484Z,77.01
2019-03-03T11:40:28.479Z,77.73
2019-03-03T11:41:28.473Z,78.04
2019-03-03T11:42:28.453Z,78.24
2019-03-03T11:43:28.441Z,80.08
2019-03-03T11:44:28.436Z,79.88
2019-03-03T11:45:28.421Z,77.73
2019-03-03T11:46:28.418Z,77.22
2019-03-03T11:47:28.397Z,77.42
2019-03-03T11:48:28.386Z,78.14
2019-03-03T11:49:28.376Z,77.53
2019-03-03T11:50:28.364Z,78.04
2019-03-03T11:51:28.362Z,78.24
2019-03-03T11:52:28.342Z,77.53
2019-03-03T11:53:28.333Z,78.65
2019-03-03T11:54:28.320Z,78.34
2019-03-03T11:55:28.310Z,79.98
2019-03-03T11:56:28.307Z,77.83
2019-03-03T11:57:28.288Z,77.32
2019-03-03T11:58:28.279Z,78.65
2019-03-03T11:59:28.264Z,78.75
2019-03-03T12:00:28.254Z,78.65
2019-03-03T12:01:28.252Z,78.55
2019-03-03T12:02:28.232Z,78.55
2019-03-03T12:03:28.221Z,78.75
2019-03-03T12:04:28.208Z,79.68
2019-03-03T12:05:28.196Z,78.65
2019-03-03T12:06:28.195Z,80.12
2019-03-03T12:07:28.175Z,79.50
2019-03-03T12:08:28.166Z,80.12
2019-03-03T12:09:28.154Z,81.24
2019-03-03T12:10:28.142Z,82.89
2019-03-03T12:11:28.141Z,82.78
2019-03-03T12:12:28.119Z,81.45
2019-03-03T12:13:28.107Z,81.38
2019-03-03T12:14:28.098Z,82.82
2019-03-03T12:15:28.089Z,82.82
2019-03-03T12:16:28.083Z,84.05
2019-03-03T12:17:28.066Z,83.54
2019-03-03T12:18:28.052Z,85.07
2019-03-03T12:19:28.040Z,85.79
2019-03-03T12:20:28.033Z,85.28
2019-03-03T12:21:28.044Z,84.77
2019-03-03T12:22:28.007Z,87.43
2019-03-03T12:23:27.996Z,85.38
2019-03-03T12:24:27.988Z,85.93
2019-03-03T12:25:28.397Z,85.31
2019-03-03T12:26:27.990Z,86.85
2019-03-03T12:27:27.960Z,85.83
2019-03-03T12:28:27.941Z,86.34
2019-03-03T12:29:27.930Z,85.83
2019-03-03T12:30:28.651Z,87.47
2019-03-03T12:31:27.907Z,87.67
2019-03-03T12:32:27.905Z,86.24
2019-03-03T12:33:27.885Z,86.85
2019-03-03T12:34:27.877Z,87.26
2019-03-03T12:35:27.863Z,88.24
2019-03-03T12:36:27.853Z,86.75
2019-03-03T12:37:27.850Z,87.94
2019-03-03T12:38:27.830Z,86.71
2019-03-03T12:39:27.818Z,87.63
2019-03-03T12:40:27.807Z,86.81
2019-03-03T12:41:27.824Z,87.73
2019-03-03T12:42:27.795Z,86.71
2019-03-03T12:43:27.774Z,86.20
2019-03-03T12:44:27.763Z,87.22
2019-03-03T12:45:27.782Z,86.10
2019-03-03T12:46:27.741Z,87.53
2019-03-03T12:47:27.740Z,84.11
2019-03-03T12:48:27.806Z,83.70
2019-03-03T12:49:27.708Z,83.74
2019-03-03T12:50:28.468Z,83.50
2019-03-03T12:51:27.699Z,84.72
2019-03-03T12:52:27.683Z,84.89